createdAt,value
2022-08-30T00:00:16.438Z,95314.91
2022-08-30T00:02:44.840Z,95322.69
2022-08-30T00:05:13.435Z,95321.94
2022-08-30T00:07:41.413Z,95315.16
2022-08-30T00:10:11.114Z,95320.38
2022-08-30T00:12:39.331Z,95312.25
2022-08-30T00:15:09.345Z,95319.88
2022-08-30T00:17:40.716Z,95315.88
2022-08-30T00:20:11.268Z,95313.47
2022-08-30T00:22:39.859Z,95315.44
2022-08-30T00:25:09.126Z,95309.22
2022-08-30T00:27:38.456Z,95308.16
2022-08-30T00:30:08.414Z,95296.63
2022-08-30T00:32:36.439Z,95304.81
2022-08-30T00:35:06.775Z,95300.50
2022-08-30T00:37:34.803Z,95300.13
2022-08-30T00:40:02.867Z,95296.78
2022-08-30T00:42:31.024Z,95288.50
2022-08-30T00:45:01.723Z,95286.31
2022-08-30T00:47:29.688Z,95292.25
2022-08-30T00:49:58.988Z,95295.41
2022-08-30T00:52:26.982Z,95279.66
2022-08-30T00:54:55.220Z,95288.34
2022-08-30T00:57:23.303Z,95279.25
2022-08-30T00:59:51.844Z,95286.75
2022-08-30T01:02:24.041Z,95292.06
2022-08-30T01:04:52.774Z,95288.91
2022-08-30T01:07:20.750Z,95288.09
2022-08-30T01:09:48.835Z,95279.63
2022-08-30T01:12:17.389Z,95279.53
2022-08-30T01:14:46.988Z,95279.44
2022-08-30T01:17:16.717Z,95277.78
2022-08-30T01:19:55.173Z,95268.72
2022-08-30T01:22:29.106Z,95264.47
2022-08-30T01:25:01.255Z,95271.97
2022-08-30T01:27:32.245Z,95274.09
2022-08-30T01:30:00.439Z,95276.91
2022-08-30T01:32:30.194Z,95271.44
2022-08-30T01:34:58.856Z,95282.75
2022-08-30T01:37:30.273Z,95287.38
2022-08-30T01:39:59.751Z,95293.22
2022-08-30T01:42:28.425Z,95295.03
2022-08-30T01:44:56.476Z,95294.53
2022-08-30T01:47:24.428Z,95293.16
2022-08-30T01:49:52.550Z,95298.91
2022-08-30T01:52:21.382Z,95301.22
2022-08-30T01:54:50.269Z,95305.69
2022-08-30T01:57:22.589Z,95299.41
2022-08-30T01:59:51.178Z,95309.97
2022-08-30T02:02:22.854Z,95308.09
2022-08-30T02:04:51.821Z,95311.81
2022-08-30T02:07:20.101Z,95310.47
2022-08-30T02:09:48.206Z,95308.31
2022-08-30T02:12:16.257Z,95310.69
2022-08-30T02:14:45.732Z,95303.78
2022-08-30T02:17:15.505Z,95310.47
2022-08-30T02:19:44.627Z,95317.16
2022-08-30T02:22:12.655Z,95314.97
2022-08-30T02:24:40.765Z,95304.06
2022-08-30T02:27:08.856Z,95314.19
2022-08-30T02:29:36.946Z,95318.72
2022-08-30T02:32:06.754Z,95311.53
2022-08-30T02:34:34.746Z,95301.47
2022-08-30T02:37:03.064Z,95312.63
2022-08-30T02:39:31.021Z,95309.38
2022-08-30T02:41:59.034Z,95298.81
2022-08-30T02:44:27.038Z,95286.59
2022-08-30T02:46:55.000Z,95288.19
2022-08-30T02:49:33.052Z,95286.03
2022-08-30T02:52:02.069Z,95276.97
2022-08-30T02:54:33.014Z,95268.50
2022-08-30T02:57:04.617Z,95271.44
2022-08-30T02:59:33.219Z,95265.13
2022-08-30T03:02:01.347Z,95269.56
2022-08-30T03:04:30.752Z,95264.94
2022-08-30T03:06:59.120Z,95267.13
2022-08-30T03:09:27.177Z,95261.59
2022-08-30T03:11:55.192Z,95258.81
2022-08-30T03:14:23.237Z,95247.41
2022-08-30T03:16:51.554Z,95246.81
2022-08-30T03:19:19.651Z,95236.16
2022-08-30T03:21:49.207Z,95240.50
2022-08-30T03:24:17.199Z,95251.25
2022-08-30T03:29:15.199Z,95263.91
2022-08-30T03:31:52.909Z,95246.84
2022-08-30T03:34:22.752Z,95251.50
2022-08-30T03:36:53.441Z,95258.03
2022-08-30T03:39:22.940Z,95255.44
2022-08-30T03:41:51.957Z,95260.69
2022-08-30T03:44:20.557Z,95267.75
2022-08-30T03:46:49.661Z,95262.94
2022-08-30T03:49:17.921Z,95275.13
2022-08-30T03:51:45.919Z,95274.56
2022-08-30T03:54:15.562Z,95278.00
2022-08-30T03:56:43.558Z,95283.94
2022-08-30T03:59:11.584Z,95285.31
2022-08-30T04:01:39.615Z,95280.56
2022-08-30T04:04:07.551Z,95277.84
2022-08-30T04:06:35.839Z,95282.59
2022-08-30T04:09:03.974Z,95271.41
2022-08-30T04:11:33.700Z,95263.47
2022-08-30T04:14:01.770Z,95249.69
2022-08-30T04:16:29.792Z,95244.38
2022-08-30T04:18:57.945Z,95241.69
2022-08-30T04:21:25.933Z,95245.41
2022-08-30T04:23:53.962Z,95248.13
2022-08-30T04:26:22.191Z,95245.25
2022-08-30T04:28:51.553Z,95243.88
2022-08-30T04:31:20.114Z,95240.81
2022-08-30T04:33:48.098Z,95238.28
2022-08-30T04:36:16.072Z,95232.97
2022-08-30T04:38:44.291Z,95231.09
2022-08-30T04:41:16.349Z,95236.91
2022-08-30T04:43:45.697Z,95234.78
2022-08-30T04:46:15.335Z,95235.00
2022-08-30T04:48:43.348Z,95243.75
2022-08-30T04:51:14.303Z,95240.66
2022-08-30T04:53:42.779Z,95242.97
2022-08-30T04:56:11.960Z,95247.88
2022-08-30T04:58:40.110Z,95238.63
2022-08-30T05:01:15.186Z,95243.75
2022-08-30T05:03:47.273Z,95235.00
2022-08-30T05:06:16.889Z,95241.25
2022-08-30T05:08:46.232Z,95243.56
2022-08-30T05:11:16.166Z,95244.03
2022-08-30T05:13:44.495Z,95247.19
2022-08-30T05:16:17.703Z,95244.81
2022-08-30T05:18:48.988Z,95236.94
2022-08-30T05:21:19.189Z,95234.78
2022-08-30T05:23:47.958Z,95227.75
2022-08-30T05:26:18.371Z,95225.22
2022-08-30T05:28:47.063Z,95231.59
2022-08-30T05:31:20.953Z,95243.81
2022-08-30T05:33:51.935Z,95245.38
2022-08-30T05:36:22.087Z,95246.59
2022-08-30T05:38:50.240Z,95257.53
2022-08-30T05:41:20.466Z,95260.25
2022-08-30T05:43:49.290Z,95270.94
2022-08-30T05:46:19.582Z,95274.03
2022-08-30T05:48:47.875Z,95274.41
2022-08-30T05:51:20.603Z,95274.31
2022-08-30T05:53:49.725Z,95273.16
2022-08-30T05:56:19.834Z,95278.13
2022-08-30T05:58:48.258Z,95278.91
2022-08-30T06:01:22.553Z,95286.88
2022-08-30T06:03:51.064Z,95281.50
2022-08-30T06:06:20.413Z,95289.78
2022-08-30T06:08:49.085Z,95296.72
2022-08-30T06:11:19.657Z,95311.56
2022-08-30T06:13:48.621Z,95315.50
2022-08-30T06:16:19.117Z,95316.88
2022-08-30T06:18:47.458Z,95310.75
2022-08-30T06:21:17.742Z,95317.66
2022-08-30T06:23:47.150Z,95305.38
2022-08-30T06:26:15.825Z,95305.88
2022-08-30T06:28:44.261Z,95309.03
2022-08-30T06:31:15.531Z,95302.34
2022-08-30T06:33:44.139Z,95305.72
2022-08-30T06:36:14.660Z,95308.31
2022-08-30T06:38:42.801Z,95309.91
2022-08-30T06:41:14.802Z,95310.13
2022-08-30T06:43:48.659Z,95297.47
2022-08-30T06:46:19.771Z,95296.66
2022-08-30T06:48:48.578Z,95300.06
2022-08-30T06:51:20.201Z,95296.56
2022-08-30T06:53:48.915Z,95298.59
2022-08-30T06:56:20.029Z,95305.88
2022-08-30T06:58:48.337Z,95302.56
2022-08-30T07:01:19.526Z,95301.19
2022-08-30T07:03:47.884Z,95308.31
2022-08-30T07:06:16.423Z,95310.88
2022-08-30T07:08:47.605Z,95305.94
2022-08-30T07:11:16.557Z,95306.91
2022-08-30T07:13:45.997Z,95304.94
2022-08-30T07:16:15.355Z,95310.47
2022-08-30T07:18:54.841Z,95298.09
2022-08-30T07:21:25.748Z,95303.56
2022-08-30T07:23:54.913Z,95311.53
2022-08-30T07:26:25.914Z,95307.31
2022-08-30T07:28:56.433Z,95317.97
2022-08-30T07:31:25.508Z,95321.72
2022-08-30T07:33:53.943Z,95327.84
2022-08-30T07:36:22.928Z,95327.66
2022-08-30T07:38:52.983Z,95341.06
2022-08-30T07:41:22.673Z,95338.97
2022-08-30T07:43:50.793Z,95337.91
2022-08-30T07:46:20.518Z,95340.06
2022-08-30T07:48:49.042Z,95341.06
2022-08-30T07:51:19.670Z,95347.97
2022-08-30T07:53:47.878Z,95338.91
2022-08-30T07:56:17.112Z,95337.09
2022-08-30T07:58:45.166Z,95335.53
2022-08-30T08:01:14.713Z,95337.22
2022-08-30T08:03:45.367Z,95342.66
2022-08-30T08:06:15.967Z,95351.50
2022-08-30T08:08:45.783Z,95353.25
2022-08-30T08:11:16.695Z,95355.25
2022-08-30T08:13:52.653Z,95357.50
2022-08-30T08:16:23.230Z,95369.78
2022-08-30T08:18:53.236Z,95363.97
2022-08-30T08:21:21.580Z,95366.50
2022-08-30T08:23:49.756Z,95368.47
2022-08-30T08:26:18.216Z,95368.81
2022-08-30T08:28:47.172Z,95377.31
2022-08-30T08:31:16.734Z,95387.78
2022-08-30T08:33:44.782Z,95392.13
2022-08-30T08:36:14.152Z,95394.25
2022-08-30T08:38:42.838Z,95395.34
2022-08-30T08:41:21.382Z,95395.28
2022-08-30T08:43:49.364Z,95400.41
2022-08-30T08:46:27.258Z,95404.56
2022-08-30T08:49:00.361Z,95393.38
2022-08-30T08:51:52.384Z,95393.91
2022-08-30T08:54:25.813Z,95400.81
2022-08-30T08:56:54.407Z,95391.09
2022-08-30T08:59:22.544Z,95389.09
2022-08-30T09:01:51.167Z,95392.25
2022-08-30T09:04:24.157Z,95398.16
2022-08-30T09:06:58.461Z,95400.09
2022-08-30T09:09:31.071Z,95404.22
2022-08-30T09:11:59.512Z,95400.69
2022-08-30T09:14:35.982Z,95399.03
2022-08-30T09:17:08.448Z,95394.88
2022-08-30T09:19:43.277Z,95391.94
2022-08-30T09:22:27.905Z,95391.34
2022-08-30T09:25:01.922Z,95391.34
2022-08-30T09:27:33.973Z,95390.16
2022-08-30T09:30:05.673Z,95398.63
2022-08-30T09:32:40.397Z,95398.47
2022-08-30T09:35:11.795Z,95400.22
2022-08-30T09:37:50.100Z,95390.63
2022-08-30T09:40:27.897Z,95387.00
2022-08-30T09:43:08.509Z,95391.06
2022-08-30T09:45:38.666Z,95384.44
2022-08-30T09:48:24.207Z,95391.72
2022-08-30T09:51:00.086Z,95384.19
2022-08-30T09:53:35.504Z,95379.03
2022-08-30T09:56:10.100Z,95385.91
2022-08-30T09:58:58.736Z,95371.59
2022-08-30T10:01:31.674Z,95359.91
2022-08-30T10:04:06.883Z,95356.63
2022-08-30T10:06:42.063Z,95362.47
2022-08-30T10:09:20.433Z,95364.41
2022-08-30T10:11:57.797Z,95359.41
2022-08-30T10:14:52.164Z,95357.59
2022-08-30T10:17:35.007Z,95356.72
2022-08-30T10:20:16.513Z,95350.56
2022-08-30T10:22:50.288Z,95342.16
2022-08-30T10:25:24.198Z,95344.97
2022-08-30T10:27:56.884Z,95348.63
2022-08-30T10:30:24.929Z,95352.84
2022-08-30T10:32:59.645Z,95346.38
2022-08-30T10:35:38.336Z,95344.66
2022-08-30T10:38:11.582Z,95346.16
2022-08-30T10:41:02.906Z,95340.56
2022-08-30T10:43:39.153Z,95343.59
2022-08-30T10:46:15.508Z,95340.25
2022-08-30T10:48:47.566Z,95340.78
2022-08-30T10:51:21.508Z,95338.25
2022-08-30T10:53:56.079Z,95336.22
2022-08-30T10:56:29.512Z,95333.88
2022-08-30T10:58:59.826Z,95326.16
2022-08-30T11:01:46.500Z,95326.78
2022-08-30T11:04:44.513Z,95327.09
2022-08-30T11:07:25.703Z,95323.94
2022-08-30T11:10:11.620Z,95312.63
2022-08-30T11:12:54.724Z,95311.78
2022-08-30T11:15:25.810Z,95315.09
2022-08-30T11:18:01.769Z,95319.06
2022-08-30T11:20:34.640Z,95327.41
2022-08-30T11:23:36.166Z,95328.59
2022-08-30T11:26:06.756Z,95324.94
2022-08-30T11:29:06.579Z,95321.16
2022-08-30T11:31:40.905Z,95318.16
2022-08-30T11:34:09.959Z,95311.69
2022-08-30T11:37:10.102Z,95312.31
2022-08-30T11:39:54.346Z,95316.44
2022-08-30T11:42:42.934Z,95312.09
2022-08-30T11:45:49.101Z,95317.00
2022-08-30T11:48:46.979Z,95311.16
2022-08-30T11:52:26.658Z,95308.75
2022-08-30T11:55:03.329Z,95311.25
2022-08-30T11:57:39.404Z,95305.00
2022-08-30T12:00:11.173Z,95301.81
2022-08-30T12:02:53.590Z,95306.84
2022-08-30T12:06:00.578Z,95291.72
2022-08-30T12:08:48.593Z,95293.34
2022-08-30T12:12:02.496Z,95291.19
2022-08-30T12:14:48.967Z,95293.06
2022-08-30T12:17:44.000Z,95289.59
2022-08-30T12:20:23.014Z,95292.47
2022-08-30T12:22:54.517Z,95293.69
2022-08-30T12:25:31.402Z,95286.72
2022-08-30T12:28:17.903Z,95288.22
2022-08-30T12:30:46.667Z,95290.25
2022-08-30T12:33:29.121Z,95284.44
2022-08-30T12:35:59.374Z,95274.38
2022-08-30T12:38:30.920Z,95263.34
2022-08-30T12:41:05.700Z,95242.56
2022-08-30T12:43:40.445Z,95229.72
2022-08-30T12:46:12.844Z,95239.31
2022-08-30T12:48:45.193Z,95251.88
2022-08-30T12:51:29.366Z,95249.34
2022-08-30T12:54:14.297Z,95246.59
2022-08-30T12:56:58.042Z,95249.38
2022-08-30T12:59:54.178Z,95252.84
2022-08-30T13:02:27.869Z,95245.59
2022-08-30T13:04:58.567Z,95239.56
2022-08-30T13:07:29.892Z,95235.13
2022-08-30T13:10:06.998Z,95237.78
2022-08-30T13:12:38.311Z,95231.16
2022-08-30T13:15:16.527Z,95228.50
2022-08-30T13:17:45.702Z,95230.06
2022-08-30T13:20:27.101Z,95232.53
2022-08-30T13:23:10.033Z,95236.69
2022-08-30T13:25:40.949Z,95237.31
2022-08-30T13:28:09.783Z,95237.81
2022-08-30T13:30:38.530Z,95226.28
2022-08-30T13:33:06.523Z,95216.66
2022-08-30T13:35:34.530Z,95225.97
2022-08-30T13:38:04.268Z,95216.47
2022-08-30T13:40:32.658Z,95225.22
2022-08-30T13:43:03.627Z,95219.78
2022-08-30T13:45:47.292Z,95213.44
2022-08-30T13:48:17.517Z,95226.78
2022-08-30T13:50:53.489Z,95222.81
2022-08-30T13:53:51.964Z,95226.69
2022-08-30T13:56:14.000Z,95218.81
2022-08-30T13:58:43.636Z,95215.56
2022-08-30T14:01:14.497Z,95210.53
2022-08-30T14:06:34.095Z,95206.44
2022-08-30T14:09:04.705Z,95202.69
2022-08-30T14:11:33.022Z,95200.94
2022-08-30T14:14:39.058Z,95196.22
2022-08-30T14:16:52.636Z,95195.53
2022-08-30T14:19:21.275Z,95198.22
2022-08-30T14:21:49.450Z,95201.38
2022-08-30T14:24:20.223Z,95202.47
2022-08-30T14:26:51.525Z,95193.94
2022-08-30T14:29:23.029Z,95187.22
2022-08-30T14:31:52.572Z,95186.34
2022-08-30T14:34:21.597Z,95182.44
2022-08-30T14:36:49.626Z,95172.00
2022-08-30T14:39:22.873Z,95162.56
2022-08-30T14:41:53.603Z,95155.13
2022-08-30T14:44:26.107Z,95139.41
2022-08-30T14:46:54.546Z,95141.31
2022-08-30T14:49:23.378Z,95130.13
2022-08-30T14:51:52.121Z,95139.97
2022-08-30T14:54:25.578Z,95131.25
2022-08-30T14:56:54.386Z,95126.31
2022-08-30T14:59:24.772Z,95124.50
2022-08-30T15:01:52.884Z,95127.84
2022-08-30T15:04:21.715Z,95123.50
2022-08-30T15:06:50.390Z,95111.97
2022-08-30T15:09:23.266Z,95114.00
2022-08-30T15:11:53.086Z,95101.00
2022-08-30T15:14:24.716Z,95101.00
2022-08-30T15:16:55.155Z,95102.81
2022-08-30T15:19:23.280Z,95103.69
2022-08-30T15:21:51.738Z,95113.53
2022-08-30T15:24:24.861Z,95124.50
2022-08-30T15:26:58.118Z,95113.25
2022-08-30T15:29:30.534Z,95121.38
2022-08-30T15:32:01.017Z,95117.72
2022-08-30T15:34:29.076Z,95113.00
2022-08-30T15:36:57.515Z,95114.59
2022-08-30T15:39:25.797Z,95111.72
2022-08-30T15:42:00.291Z,95107.13
2022-08-30T15:44:31.393Z,95104.53
2022-08-30T15:46:59.953Z,95105.25
2022-08-30T15:49:28.074Z,95105.03
2022-08-30T15:52:00.798Z,95112.16
2022-08-30T15:54:29.693Z,95112.88
2022-08-30T15:57:00.093Z,95102.81
2022-08-30T15:59:29.341Z,95108.31
2022-08-30T16:01:59.590Z,95114.59
2022-08-30T16:04:27.702Z,95127.13
2022-08-30T16:06:56.379Z,95125.72
2022-08-30T16:09:26.473Z,95123.19
2022-08-30T16:11:58.125Z,95132.38
2022-08-30T16:14:27.609Z,95125.44
2022-08-30T16:16:55.820Z,95119.38
2022-08-30T16:19:25.712Z,95129.25
2022-08-30T16:21:53.982Z,95132.59
2022-08-30T16:24:23.530Z,95131.03
2022-08-30T16:26:52.059Z,95133.47
2022-08-30T16:29:20.129Z,95126.47
2022-08-30T16:31:48.318Z,95115.59
2022-08-30T16:34:20.311Z,95113.88
2022-08-30T16:36:49.863Z,95114.03
2022-08-30T16:39:18.508Z,95116.66
2022-08-30T16:41:46.726Z,95117.69
2022-08-30T16:44:17.871Z,95123.19
2022-08-30T16:46:52.978Z,95119.25
2022-08-30T16:49:23.196Z,95127.53
2022-08-30T16:51:55.616Z,95131.34
2022-08-30T16:54:24.741Z,95127.75
2022-08-30T16:56:53.107Z,95141.03
2022-08-30T16:59:21.199Z,95138.53
2022-08-30T17:01:49.666Z,95131.34
2022-08-30T17:04:19.458Z,95133.00
2022-08-30T17:06:49.625Z,95128.94
2022-08-30T17:09:20.213Z,95173.09
2022-08-30T17:11:49.323Z,95184.13
2022-08-30T17:14:21.482Z,95207.75
2022-08-30T17:16:51.548Z,95239.28
2022-08-30T17:19:26.909Z,95317.03
2022-08-30T17:21:58.221Z,95324.53
2022-08-30T17:24:28.083Z,95265.34
2022-08-30T17:26:56.098Z,95274.84
2022-08-30T17:29:26.449Z,95277.47
2022-08-30T17:31:54.995Z,95252.69
2022-08-30T17:34:24.170Z,95270.88
2022-08-30T17:36:57.158Z,95292.81
2022-08-30T17:39:27.420Z,95287.41
2022-08-30T17:41:56.486Z,95303.19
2022-08-30T17:44:29.027Z,95310.13
2022-08-30T17:46:58.402Z,95356.63
2022-08-30T17:49:28.811Z,95366.16
2022-08-30T17:51:58.229Z,95365.78
2022-08-30T17:54:29.009Z,95296.72
2022-08-30T17:56:57.515Z,95213.66
2022-08-30T17:59:26.601Z,95174.03
2022-08-30T18:01:57.473Z,95243.84
2022-08-30T18:04:27.154Z,95274.00
2022-08-30T18:06:55.621Z,95259.00
2022-08-30T18:09:24.668Z,95268.66
2022-08-30T18:11:56.471Z,95275.00
2022-08-30T18:14:25.295Z,95276.78
2022-08-30T18:16:54.497Z,95291.47
2022-08-30T18:19:23.493Z,95300.91
2022-08-30T18:21:51.568Z,95307.16
2022-08-30T18:24:19.577Z,95323.06
2022-08-30T18:26:47.654Z,95326.78
2022-08-30T18:29:25.996Z,95329.38
2022-08-30T18:31:57.365Z,95335.78
2022-08-30T18:34:25.416Z,95343.50
2022-08-30T18:36:54.150Z,95341.47
2022-08-30T18:39:23.106Z,95353.00
2022-08-30T18:41:52.965Z,95355.78
2022-08-30T18:44:29.104Z,95356.50
2022-08-30T18:47:13.385Z,95355.16
2022-08-30T18:49:42.673Z,95354.03
2022-08-30T18:52:11.746Z,95354.75
2022-08-30T18:54:41.125Z,95355.53
2022-08-30T18:57:09.887Z,95345.47
2022-08-30T18:59:41.931Z,95332.28
2022-08-30T19:02:13.122Z,95331.22
2022-08-30T19:07:34.220Z,95339.13
2022-08-30T19:10:07.088Z,95343.34
2022-08-30T19:12:35.049Z,95333.81
2022-08-30T19:15:10.961Z,95341.84
2022-08-30T19:17:41.695Z,95342.41
2022-08-30T19:20:10.948Z,95329.75
2022-08-30T19:23:09.010Z,95332.44
2022-08-30T19:25:27.649Z,95343.25
2022-08-30T19:27:57.026Z,95346.13
2022-08-30T19:30:29.858Z,95348.84
2022-08-30T19:32:58.563Z,95348.91
2022-08-30T19:35:30.078Z,95351.06
2022-08-30T19:37:58.423Z,95342.38
2022-08-30T19:40:26.626Z,95352.69
2022-08-30T19:42:54.838Z,95359.06
2022-08-30T19:45:23.818Z,95358.56
2022-08-30T19:47:54.016Z,95352.09
2022-08-30T19:50:22.992Z,95353.06
2022-08-30T19:52:54.738Z,95349.94
2022-08-30T19:55:29.992Z,95354.22
2022-08-30T19:57:58.424Z,95353.22
2022-08-30T20:00:26.489Z,95352.66
2022-08-30T20:02:55.899Z,95348.34
2022-08-30T20:05:24.311Z,95342.50
2022-08-30T20:07:52.565Z,95345.69
2022-08-30T20:10:25.844Z,95339.25
2022-08-30T20:12:54.173Z,95342.97
2022-08-30T20:15:22.920Z,95339.53
2022-08-30T20:18:05.682Z,95334.94
2022-08-30T20:20:36.960Z,95336.53
2022-08-30T20:23:05.879Z,95328.06
2022-08-30T20:24:31.765Z,95340.69
2022-08-30T20:25:34.109Z,95327.56
2022-08-30T20:28:02.096Z,95331.41
2022-08-30T20:30:30.285Z,95325.56
2022-08-30T20:32:58.775Z,95321.38
2022-08-30T20:35:28.405Z,95329.31
2022-08-30T20:37:57.808Z,95331.94
2022-08-30T20:40:25.823Z,95329.38
2022-08-30T20:42:54.662Z,95326.22
2022-08-30T20:45:22.823Z,95328.38
2022-08-30T20:47:53.047Z,95315.59
2022-08-30T20:50:21.332Z,95325.66
2022-08-30T20:52:49.274Z,95327.25
2022-08-30T20:55:18.629Z,95332.16
2022-08-30T20:57:46.594Z,95324.38
2022-08-30T21:00:15.476Z,95330.47
2022-08-30T21:02:46.837Z,95335.88
2022-08-30T21:05:17.754Z,95336.34
2022-08-30T21:07:46.839Z,95335.00
2022-08-30T21:10:21.165Z,95330.75
2022-08-30T21:12:53.414Z,95335.25
2022-08-30T21:15:36.873Z,95328.88
2022-08-30T21:18:05.938Z,95330.97
2022-08-30T21:20:33.951Z,95330.47
2022-08-30T21:23:01.919Z,95331.59
2022-08-30T21:25:30.987Z,95330.63
2022-08-30T21:28:00.531Z,95310.50
2022-08-30T21:30:28.610Z,95319.97
2022-08-30T21:33:00.072Z,95315.47
2022-08-30T21:35:46.113Z,95326.81
2022-08-30T21:38:14.305Z,95327.31
2022-08-30T21:40:42.552Z,95327.38
2022-08-30T21:43:12.054Z,95326.97
2022-08-30T21:45:40.555Z,95327.97
2022-08-30T21:48:09.716Z,95330.06
2022-08-30T21:50:39.948Z,95341.75
2022-08-30T21:53:07.933Z,95336.63
2022-08-30T21:55:35.883Z,95329.59
2022-08-30T21:58:03.915Z,95333.69
2022-08-30T22:00:33.685Z,95337.88
2022-08-30T22:03:01.803Z,95342.50
2022-08-30T22:05:29.871Z,95340.28
2022-08-30T22:07:57.933Z,95340.19
2022-08-30T22:10:30.010Z,95344.91
2022-08-30T22:13:00.874Z,95341.09
2022-08-30T22:15:28.950Z,95340.84
2022-08-30T22:17:58.903Z,95347.56
2022-08-30T22:20:30.327Z,95344.91
2022-08-30T22:22:58.772Z,95349.09
2022-08-30T22:25:26.768Z,95354.91
2022-08-30T22:27:54.747Z,95363.63
2022-08-30T22:30:22.715Z,95368.56
2022-08-30T22:32:50.695Z,95367.19
2022-08-30T22:35:22.076Z,95368.31
2022-08-30T22:37:53.266Z,95375.19
2022-08-30T22:40:22.850Z,95368.44
2022-08-30T22:42:50.844Z,95373.84
2022-08-30T22:45:19.028Z,95371.09
2022-08-30T22:47:47.207Z,95371.56
2022-08-30T22:50:15.161Z,95363.00
2022-08-30T22:52:44.655Z,95364.34
2022-08-30T22:55:12.664Z,95368.31
2022-08-30T22:57:41.685Z,95366.72
2022-08-30T23:00:15.147Z,95372.34
2022-08-30T23:02:43.850Z,95376.09
2022-08-30T23:05:12.647Z,95373.59
2022-08-30T23:07:40.757Z,95370.38
2022-08-30T23:10:12.262Z,95368.19
2022-08-30T23:12:41.224Z,95365.50
2022-08-30T23:15:12.582Z,95359.66
2022-08-30T23:17:40.630Z,95352.78
2022-08-30T23:20:09.696Z,95356.38
2022-08-30T23:22:37.860Z,95352.06
2022-08-30T23:25:25.372Z,95352.53
2022-08-30T23:28:17.497Z,95352.53
2022-08-30T23:31:06.430Z,95350.97
2022-08-30T23:33:51.627Z,95348.31
2022-08-30T23:36:37.170Z,95352.06
2022-08-30T23:39:23.215Z,95354.44
2022-08-30T23:42:08.748Z,95351.50
2022-08-30T23:44:55.907Z,95349.38
2022-08-30T23:47:41.442Z,95340.91
2022-08-30T23:50:27.517Z,95331.88
2022-08-30T23:53:12.801Z,95321.22
2022-08-30T23:55:59.118Z,95322.28
2022-08-30T23:58:44.892Z,95325.50
